Quick Links (Output Below):   Max & Min Temps   /   Climate Reports   /   Zone Forecasts
River Forecasts   /   Forestry Forecasts   /   Aviation Forecasts   /   Radars   /   Features

Terminal Aerodrome Forecast (Highfill)

Pick a Site:
Arkadelphia | El Dorado | Fayetteville | Fort Smith | Harrison | Highfill | Hot Springs | Jonesboro
Little Rock | Monticello | Mountain Home | Pine Bluff | Texarkana
 Forecast 

KXNA 202004Z 2020/2118 26005KT P6SM BKN025
     FM210200 VRB03KT P6SM SCT250
     FM210800 00000KT 1/2SM FG BKN002
     FM211400 VRB02KT 4SM BR SCT002 BKN035=


 Latest METARs (Observations) 
How to Decode METARs
21Z KXNA 202053Z 00000KT 10SM OVC023 19/14 A3005 RMK AO2 SLP168
         T01940144 55010
         
20Z KXNA 201953Z 00000KT 10SM OVC023 19/14 A3004 RMK AO2 SLP165
         T01940144
         
19Z KXNA 201853Z 21007KT 10SM BKN023 20/15 A3005 RMK AO2 SLP170
         T02000150
         
18Z KXNA 201753Z 21005KT 10SM OVC027 18/14 A3008 RMK AO2 SLP179
         T01830139 10183 20122 58010
         
17Z KXNA 201653Z 22006KT 10SM SCT025 OVC031 17/13 A3009 RMK AO2 SLP184
         T01670133
         
16Z KXNA 201553Z 22006KT 10SM OVC025 15/13 A3010 RMK AO2 SLP186
         T01500128
         
15Z KXNA 201453Z 22004KT 10SM OVC025 14/12 A3011 RMK AO2 SLP190
         T01390122 53013
         
14Z KXNA 201353Z 21003KT 10SM BKN038 BKN045 OVC050 13/12 A3010 RMK AO2
         SLP187 T01280122
         
13Z KXNA 201253Z 00000KT 10SM BKN035 OVC065 12/12 A3008 RMK AO2 SLP181
         T01220117
         
12Z KXNA 201153Z 21003KT 10SM FEW025 SCT065 OVC080 12/12 A3007 RMK AO2
         SLP177 60024 70024 T01220117 10122 20106 53003
         
***** Today's Observations (Above) *****


Back to Main Page
http://www.srh.noaa.gov/lzk/qfcst.php

USA.gov is the U.S. government's official web portal to all federal, state and local government web resources and services.